Texarkana Regional Webb Field
KTXK : now visible

Airfield :











YOU CAN JOIN US ON...

 
LOGIN :

Register | Disclaimer

   EN    FR    IT 

 









Legend :    VFR   Marginal VFR   IFR   Intensive IFR   Very Intensive IFR
Visi :
Ceiling :
>= 8 km
>= 3000ft
5 to 8 km
1000 to 3000 ft
1500m to 5 km
500 to 1000 ft
800 to 1500m
200 to 500 ft
< 800m
< 200 ft
Symbols :   Thunderstorms  Fog  Heavy snow  Heavy precipitations  Wind > 20 kt







- Airport Elevation : 390 ft
- IATA code : TXK


KTXK - Texarkana Regional Webb Field

CURRENT METAR :
  • 220153Z 14004KT 10SM CLR 26/19 A3005 RMK AO2 SLP170 T02610194

EXPIRED METARs :
  • 220053Z 14004KT 10SM CLR 27/19 A3003 RMK AO2 SLP165 T02670194
  • 212353Z 17005KT 10SM CLR 29/19 A3003 RMK AO2 SLP165 T02940194 10322 20294 56007

TAF KTXK
Valid from the 22 at 00:00 until the 23 at 00:00 UTC


212320Z 2200/2224 16005KT P6SM SKC
TEMPO 2200/2202 18010KT SCT050
FM221200 17007KT P6SM BKN015
FM221600 19012KT P6SM SCT035
No reported NOTAMs for that airfield.



MET'MAP, your aeronautical weather chart ! - Copyright ORBIFLY December 2007 - Disclaimer

ORBIFLY MET'MAP TEAM :

Programming & Development : Alexandra Zaïnal
Concept & Development : Baudouin d'Aumeries
Co-Development & Prog : Marc-Olivier Méhu
Technical & hardware support : Manuel Goepfert

Contact : metmap@orbifly.com




SOURCES & CREDITS :

   NOAA       Earth
Advisory